PWSweather.com
Personal Weather Stations
Station Observations
SEVANL01
SevillaES 41004

SevillaES 41004

Lat: 37.383633, Lon: -5.985787

Elevation: 19.685

Station Type: Davis Vantage Pro2

www.tiempoensevilla.es

High Low Average
Temperature 83.6°F28.7°C 65.6°F18.7°C 73.3°F22.9°C
Dew Point 64.5°F18.1°C 60.7°F15.9°C 62.4°F16.9°C
Winds 7.2 mph 11.6 kmh 1.0 mph 1.6 kmh 4.0 mph SSW6.4 kmh SSW
Wind Gusts 16.0 mph25.7 kmh 4.0 mph6.4 kmh 9.0 mph14.5 kmh
Humidity 86% 51% 70%
Pressure 29.82 in1009.8 mb 29.69 in1005.4 mb -
Precipitation 0.00 in0.0 mm - -
Hour Temp Dew Point Humidity Winds Wind Gusts Pressure Precip Precip Rate Daily Precip Total
12:00 AM 69.3°F20.7°C 62.9°F17.2°C 80% 3.9 mph SSW6.3 kmh SSW 8.0 mph12.9 kmh 29.82 in1009.8 mb 0.00 in0.0 mm 0.00 in0.0 mm 0.00 in0.0 mm
12:20 AM 68.9°F20.5°C 62.1°F16.7°C 79% 3.5 mph SSW5.6 kmh SSW 9.0 mph14.5 kmh 29.82 in1009.8 mb 0.00 in0.0 mm 0.00 in0.0 mm 0.00 in0.0 mm
12:40 AM 68.7°F20.4°C 61.9°F16.6°C 79% 2.5 mph S4.0 kmh S 4.0 mph6.4 kmh 29.82 in1009.8 mb 0.00 in0.0 mm 0.00 in0.0 mm 0.00 in0.0 mm
01:00 AM 67.9°F19.9°C 61.5°F16.4°C 80% 4.0 mph SW6.4 kmh SW 10.0 mph16.1 kmh 29.82 in1009.8 mb 0.00 in0.0 mm 0.00 in0.0 mm 0.00 in0.0 mm
01:20 AM 67.4°F19.7°C 61.4°F16.3°C 81% 3.9 mph SSW6.3 kmh SSW 9.0 mph14.5 kmh 29.82 in1009.8 mb 0.00 in0.0 mm 0.00 in0.0 mm 0.00 in0.0 mm
01:40 AM 67.1°F19.5°C 61.4°F16.3°C 82% 4.0 mph SSW6.4 kmh SSW 10.0 mph16.1 kmh 29.82 in1009.8 mb 0.00 in0.0 mm 0.00 in0.0 mm 0.00 in0.0 mm
02:00 AM 67.0°F19.4°C 61.3°F16.3°C 82% 4.0 mph S6.4 kmh S 9.0 mph14.5 kmh 29.82 in1009.8 mb 0.00 in0.0 mm 0.00 in0.0 mm 0.00 in0.0 mm
02:20 AM 66.9°F19.4°C 60.9°F16.1°C 81% 3.2 mph SW5.1 kmh SW 9.0 mph14.5 kmh 29.81 in1009.5 mb 0.00 in0.0 mm 0.00 in0.0 mm 0.00 in0.0 mm
02:40 AM 66.7°F19.3°C 61.0°F16.1°C 82% 2.0 mph SSW3.2 kmh SSW 5.0 mph8.0 kmh 29.81 in1009.5 mb 0.00 in0.0 mm 0.00 in0.0 mm 0.00 in0.0 mm
03:00 AM 66.4°F19.1°C 61.1°F16.2°C 83% 2.1 mph SW3.4 kmh SW 7.0 mph11.3 kmh 29.80 in1009.1 mb 0.00 in0.0 mm 0.00 in0.0 mm 0.00 in0.0 mm
03:20 AM 66.1°F18.9°C 61.1°F16.2°C 84% 2.6 mph SSW4.2 kmh SSW 6.0 mph9.7 kmh 29.79 in1008.8 mb 0.00 in0.0 mm 0.00 in0.0 mm 0.00 in0.0 mm
03:40 AM 66.2°F19.0°C 61.2°F16.2°C 84% 2.0 mph SSW3.2 kmh SSW 5.0 mph8.0 kmh 29.79 in1008.8 mb 0.00 in0.0 mm 0.00 in0.0 mm 0.00 in0.0 mm
04:00 AM 66.1°F18.9°C 61.1°F16.2°C 84% 1.7 mph SSW2.7 kmh SSW 6.0 mph9.7 kmh 29.79 in1008.8 mb 0.00 in0.0 mm 0.00 in0.0 mm 0.00 in0.0 mm
04:20 AM 65.9°F18.8°C 61.3°F16.3°C 85% 2.0 mph SW3.2 kmh SW 4.0 mph6.4 kmh 29.78 in1008.5 mb 0.00 in0.0 mm 0.00 in0.0 mm 0.00 in0.0 mm
04:40 AM 65.9°F18.8°C 61.3°F16.3°C 85% 1.6 mph SSW2.6 kmh SSW 4.0 mph6.4 kmh 29.78 in1008.5 mb 0.00 in0.0 mm 0.00 in0.0 mm 0.00 in0.0 mm
05:00 AM 65.9°F18.8°C 61.3°F16.3°C 85% 1.2 mph S1.9 kmh S 4.0 mph6.4 kmh 29.78 in1008.5 mb 0.00 in0.0 mm 0.00 in0.0 mm 0.00 in0.0 mm
05:20 AM 65.7°F18.7°C 61.1°F16.2°C 85% 1.0 mph SSE1.6 kmh SSE 4.0 mph6.4 kmh 29.78 in1008.5 mb 0.00 in0.0 mm 0.00 in0.0 mm 0.00 in0.0 mm
05:40 AM 65.6°F18.7°C 61.3°F16.3°C 86% 2.4 mph S3.9 kmh S 7.0 mph11.3 kmh 29.78 in1008.5 mb 0.00 in0.0 mm 0.00 in0.0 mm 0.00 in0.0 mm
06:00 AM 66.0°F18.9°C 61.4°F16.3°C 85% 2.5 mph S4.0 kmh S 7.0 mph11.3 kmh 29.78 in1008.5 mb 0.00 in0.0 mm 0.00 in0.0 mm 0.00 in0.0 mm
06:20 AM 66.0°F18.9°C 61.0°F16.1°C 84% 2.0 mph SSE3.2 kmh SSE 5.0 mph8.0 kmh 29.79 in1008.8 mb 0.00 in0.0 mm 0.00 in0.0 mm 0.00 in0.0 mm
06:40 AM 66.0°F18.9°C 61.4°F16.3°C 85% 1.9 mph S3.1 kmh S 6.0 mph9.7 kmh 29.78 in1008.5 mb 0.00 in0.0 mm 0.00 in0.0 mm 0.00 in0.0 mm
07:00 AM 66.4°F19.1°C 61.4°F16.3°C 84% 2.0 mph SW3.2 kmh SW 6.0 mph9.7 kmh 29.78 in1008.5 mb 0.00 in0.0 mm 0.00 in0.0 mm 0.00 in0.0 mm
07:20 AM 66.2°F19.0°C 61.6°F16.4°C 85% 3.0 mph SW4.8 kmh SW 6.0 mph9.7 kmh 29.78 in1008.5 mb 0.00 in0.0 mm 0.00 in0.0 mm 0.00 in0.0 mm
07:40 AM 66.6°F19.2°C 61.9°F16.6°C 85% 2.7 mph SW4.3 kmh SW 7.0 mph11.3 kmh 29.79 in1008.8 mb 0.00 in0.0 mm 0.00 in0.0 mm 0.00 in0.0 mm
08:00 AM 66.7°F19.3°C 62.0°F16.7°C 85% 2.5 mph S4.0 kmh S 6.0 mph9.7 kmh 29.79 in1008.8 mb 0.00 in0.0 mm 0.00 in0.0 mm 0.00 in0.0 mm
08:20 AM 67.1°F19.5°C 62.1°F16.7°C 84% 2.9 mph S4.7 kmh S 7.0 mph11.3 kmh 29.79 in1008.8 mb 0.00 in0.0 mm 0.00 in0.0 mm 0.00 in0.0 mm
08:40 AM 67.7°F19.8°C 62.3°F16.8°C 83% 2.0 mph S3.2 kmh S 7.0 mph11.3 kmh 29.79 in1008.8 mb 0.00 in0.0 mm 0.00 in0.0 mm 0.00 in0.0 mm
09:00 AM 68.2°F20.1°C 62.8°F17.1°C 83% 2.4 mph SW3.9 kmh SW 6.0 mph9.7 kmh 29.79 in1008.8 mb 0.00 in0.0 mm 0.00 in0.0 mm 0.00 in0.0 mm
09:20 AM 69.0°F20.6°C 62.9°F17.2°C 81% 2.3 mph SW3.7 kmh SW 7.0 mph11.3 kmh 29.79 in1008.8 mb 0.00 in0.0 mm 0.00 in0.0 mm 0.00 in0.0 mm
09:40 AM 69.7°F20.9°C 63.3°F17.4°C 80% 2.0 mph SW3.2 kmh SW 5.0 mph8.0 kmh 29.79 in1008.8 mb 0.00 in0.0 mm 0.00 in0.0 mm 0.00 in0.0 mm
10:00 AM 71.0°F21.7°C 63.8°F17.7°C 78% 2.6 mph SW4.2 kmh SW 7.0 mph11.3 kmh 29.79 in1008.8 mb 0.00 in0.0 mm 0.00 in0.0 mm 0.00 in0.0 mm
10:20 AM 72.2°F22.3°C 63.8°F17.7°C 75% 2.8 mph SW4.5 kmh SW 13.0 mph20.9 kmh 29.78 in1008.5 mb 0.00 in0.0 mm 0.00 in0.0 mm 0.00 in0.0 mm
10:40 AM 73.4°F23.0°C 64.2°F17.9°C 73% 3.6 mph SW5.8 kmh SW 11.0 mph17.7 kmh 29.78 in1008.5 mb 0.00 in0.0 mm 0.00 in0.0 mm 0.00 in0.0 mm
11:00 AM 74.1°F23.4°C 64.5°F18.1°C 72% 4.2 mph WSW6.8 kmh WSW 10.0 mph16.1 kmh 29.78 in1008.5 mb 0.00 in0.0 mm 0.00 in0.0 mm 0.00 in0.0 mm
11:20 AM 75.0°F23.9°C 64.1°F17.8°C 69% 4.9 mph SW7.9 kmh SW 11.0 mph17.7 kmh 29.78 in1008.5 mb 0.00 in0.0 mm 0.00 in0.0 mm 0.00 in0.0 mm
11:40 AM 75.3°F24.1°C 64.4°F18.0°C 69% 5.0 mph SW8.0 kmh SW 11.0 mph17.7 kmh 29.78 in1008.5 mb 0.00 in0.0 mm 0.00 in0.0 mm 0.00 in0.0 mm
12:00 PM 76.3°F24.6°C 64.5°F18.1°C 67% 4.4 mph SW7.1 kmh SW 9.0 mph14.5 kmh 29.77 in1008.1 mb 0.00 in0.0 mm 0.00 in0.0 mm 0.00 in0.0 mm
12:20 PM 77.6°F25.3°C 63.5°F17.5°C 62% 4.6 mph SW7.4 kmh SW 10.0 mph16.1 kmh 29.77 in1008.1 mb 0.00 in0.0 mm 0.00 in0.0 mm 0.00 in0.0 mm
12:40 PM 78.0°F25.6°C 63.9°F17.7°C 62% 5.3 mph S8.5 kmh S 14.0 mph22.5 kmh 29.76 in1007.8 mb 0.00 in0.0 mm 0.00 in0.0 mm 0.00 in0.0 mm
01:00 PM 79.0°F26.1°C 63.4°F17.4°C 59% 4.0 mph SW6.4 kmh SW 9.0 mph14.5 kmh 29.75 in1007.5 mb 0.00 in0.0 mm 0.00 in0.0 mm 0.00 in0.0 mm
01:20 PM 79.3°F26.3°C 63.7°F17.6°C 59% 4.0 mph S6.4 kmh S 10.0 mph16.1 kmh 29.75 in1007.5 mb 0.00 in0.0 mm 0.00 in0.0 mm 0.00 in0.0 mm
01:40 PM 80.0°F26.7°C 63.9°F17.7°C 58% 4.1 mph SW6.6 kmh SW 10.0 mph16.1 kmh 29.74 in1007.1 mb 0.00 in0.0 mm 0.00 in0.0 mm 0.00 in0.0 mm
02:00 PM 81.0°F27.2°C 63.3°F17.4°C 55% 3.7 mph S6.0 kmh S 10.0 mph16.1 kmh 29.73 in1006.8 mb 0.00 in0.0 mm 0.00 in0.0 mm 0.00 in0.0 mm
02:20 PM 81.4°F27.4°C 63.2°F17.3°C 54% 4.7 mph SSW7.6 kmh SSW 11.0 mph17.7 kmh 29.72 in1006.4 mb 0.00 in0.0 mm 0.00 in0.0 mm 0.00 in0.0 mm
02:40 PM 81.8°F27.7°C 64.1°F17.8°C 55% 4.4 mph S7.1 kmh S 11.0 mph17.7 kmh 29.72 in1006.4 mb 0.00 in0.0 mm 0.00 in0.0 mm 0.00 in0.0 mm
03:00 PM 82.1°F27.8°C 63.3°F17.4°C 53% 4.9 mph SW7.9 kmh SW 10.0 mph16.1 kmh 29.71 in1006.1 mb 0.00 in0.0 mm 0.00 in0.0 mm 0.00 in0.0 mm
03:20 PM 82.9°F28.3°C 62.9°F17.2°C 51% 3.7 mph S6.0 kmh S 7.0 mph11.3 kmh 29.71 in1006.1 mb 0.00 in0.0 mm 0.00 in0.0 mm 0.00 in0.0 mm
03:40 PM 83.6°F28.7°C 63.6°F17.6°C 51% 4.0 mph SSW6.4 kmh SSW 10.0 mph16.1 kmh 29.71 in1006.1 mb 0.00 in0.0 mm 0.00 in0.0 mm 0.00 in0.0 mm
04:00 PM 83.2°F28.4°C 63.7°F17.6°C 52% 5.0 mph SSW8.0 kmh SSW 12.0 mph19.3 kmh 29.71 in1006.1 mb 0.00 in0.0 mm 0.00 in0.0 mm 0.00 in0.0 mm
04:20 PM 82.6°F28.1°C 64.3°F17.9°C 54% 5.3 mph SSW8.5 kmh SSW 12.0 mph19.3 kmh 29.71 in1006.1 mb 0.00 in0.0 mm 0.00 in0.0 mm 0.00 in0.0 mm
04:40 PM 82.4°F28.0°C 64.1°F17.8°C 54% 6.1 mph SSW9.8 kmh SSW 16.0 mph25.7 kmh 29.70 in1005.8 mb 0.00 in0.0 mm 0.00 in0.0 mm 0.00 in0.0 mm
05:00 PM 82.2°F27.9°C 64.4°F18.0°C 55% 5.7 mph SSW9.2 kmh SSW 12.0 mph19.3 kmh 29.70 in1005.8 mb 0.00 in0.0 mm 0.00 in0.0 mm 0.00 in0.0 mm
05:20 PM 82.1°F27.8°C 63.8°F17.7°C 54% 7.2 mph SW11.6 kmh SW 13.0 mph20.9 kmh 29.70 in1005.8 mb 0.00 in0.0 mm 0.00 in0.0 mm 0.00 in0.0 mm
05:40 PM 82.3°F27.9°C 64.0°F17.8°C 54% 5.8 mph SSW9.3 kmh SSW 14.0 mph22.5 kmh 29.69 in1005.4 mb 0.00 in0.0 mm 0.00 in0.0 mm 0.00 in0.0 mm
06:00 PM 82.3°F27.9°C 64.0°F17.8°C 54% 5.4 mph S8.7 kmh S 12.0 mph19.3 kmh 29.69 in1005.4 mb 0.00 in0.0 mm 0.00 in0.0 mm 0.00 in0.0 mm
06:20 PM 82.2°F27.9°C 63.4°F17.4°C 53% 6.0 mph SW9.7 kmh SW 13.0 mph20.9 kmh 29.69 in1005.4 mb 0.00 in0.0 mm 0.00 in0.0 mm 0.00 in0.0 mm
06:40 PM 82.4°F28.0°C 62.5°F16.9°C 51% 6.7 mph SW10.8 kmh SW 12.0 mph19.3 kmh 29.69 in1005.4 mb 0.00 in0.0 mm 0.00 in0.0 mm 0.00 in0.0 mm
07:00 PM 81.6°F27.6°C 62.3°F16.8°C 52% 6.3 mph SW10.1 kmh SW 15.0 mph24.1 kmh 29.69 in1005.4 mb 0.00 in0.0 mm 0.00 in0.0 mm 0.00 in0.0 mm
07:20 PM 81.3°F27.4°C 61.4°F16.3°C 51% 5.6 mph SW9.0 kmh SW 13.0 mph20.9 kmh 29.69 in1005.4 mb 0.00 in0.0 mm 0.00 in0.0 mm 0.00 in0.0 mm
07:40 PM 80.5°F26.9°C 62.8°F17.1°C 55% 5.8 mph SSW9.3 kmh SSW 12.0 mph19.3 kmh 29.70 in1005.8 mb 0.00 in0.0 mm 0.00 in0.0 mm 0.00 in0.0 mm
08:00 PM 79.0°F26.1°C 62.5°F16.9°C 57% 5.4 mph SW8.7 kmh SW 11.0 mph17.7 kmh 29.70 in1005.8 mb 0.00 in0.0 mm 0.00 in0.0 mm 0.00 in0.0 mm
08:20 PM 77.6°F25.3°C 61.7°F16.5°C 58% 5.4 mph SW8.7 kmh SW 11.0 mph17.7 kmh 29.71 in1006.1 mb 0.00 in0.0 mm 0.00 in0.0 mm 0.00 in0.0 mm
08:40 PM 76.6°F24.8°C 61.7°F16.5°C 60% 4.9 mph SW7.9 kmh SW 12.0 mph19.3 kmh 29.72 in1006.4 mb 0.00 in0.0 mm 0.00 in0.0 mm 0.00 in0.0 mm
09:00 PM 75.9°F24.4°C 61.0°F16.1°C 60% 4.3 mph SW6.9 kmh SW 9.0 mph14.5 kmh 29.72 in1006.4 mb 0.00 in0.0 mm 0.00 in0.0 mm 0.00 in0.0 mm
09:20 PM 74.6°F23.7°C 60.7°F15.9°C 62% 5.0 mph SW8.0 kmh SW 11.0 mph17.7 kmh 29.73 in1006.8 mb 0.00 in0.0 mm 0.00 in0.0 mm 0.00 in0.0 mm
09:40 PM 73.6°F23.1°C 61.1°F16.2°C 65% 5.1 mph SW8.2 kmh SW 12.0 mph19.3 kmh 29.73 in1006.8 mb 0.00 in0.0 mm 0.00 in0.0 mm 0.00 in0.0 mm
10:00 PM 72.7°F22.6°C 61.1°F16.2°C 67% 5.0 mph SW8.0 kmh SW 12.0 mph19.3 kmh 29.74 in1007.1 mb 0.00 in0.0 mm 0.00 in0.0 mm 0.00 in0.0 mm
10:20 PM 71.5°F21.9°C 61.2°F16.2°C 70% 4.3 mph SW6.9 kmh SW 14.0 mph22.5 kmh 29.75 in1007.5 mb 0.00 in0.0 mm 0.00 in0.0 mm 0.00 in0.0 mm
10:40 PM 70.5°F21.4°C 62.2°F16.8°C 75% 4.3 mph SSW6.9 kmh SSW 11.0 mph17.7 kmh 29.75 in1007.5 mb 0.00 in0.0 mm 0.00 in0.0 mm 0.00 in0.0 mm
11:00 PM 69.5°F20.8°C 62.0°F16.7°C 77% 4.9 mph SW7.9 kmh SW 12.0 mph19.3 kmh 29.76 in1007.8 mb 0.00 in0.0 mm 0.00 in0.0 mm 0.00 in0.0 mm
11:20 PM 69.0°F20.6°C 61.5°F16.4°C 77% 4.2 mph SW6.8 kmh SW 12.0 mph19.3 kmh 29.76 in1007.8 mb 0.00 in0.0 mm 0.00 in0.0 mm 0.00 in0.0 mm
11:40 PM 68.4°F20.2°C 61.3°F16.3°C 78% 3.3 mph SW5.3 kmh SW 11.0 mph17.7 kmh 29.76 in1007.8 mb 0.00 in0.0 mm 0.00 in0.0 mm 0.00 in0.0 mm